sensor_id;sensor_type;location;lat;lon;timestamp;temperature;humidity
40287;DHT22;25998;46.604;13.610;2023-05-25T00:02:09;15.00;99.90
40287;DHT22;25998;46.604;13.610;2023-05-25T00:05:24;15.00;99.90
40287;DHT22;25998;46.604;13.610;2023-05-25T00:08:40;15.00;99.90
40287;DHT22;25998;46.604;13.610;2023-05-25T00:11:51;15.10;99.90
40287;DHT22;25998;46.604;13.610;2023-05-25T00:15:03;15.10;99.90
40287;DHT22;25998;46.604;13.610;2023-05-25T00:18:14;15.10;99.90
40287;DHT22;25998;46.604;13.610;2023-05-25T00:21:25;15.10;99.90
40287;DHT22;25998;46.604;13.610;2023-05-25T00:24:38;15.00;99.90
40287;DHT22;25998;46.604;13.610;2023-05-25T00:27:49;14.80;99.90
40287;DHT22;25998;46.604;13.610;2023-05-25T00:31:00;14.70;99.90
40287;DHT22;25998;46.604;13.610;2023-05-25T00:34:11;14.50;99.90
40287;DHT22;25998;46.604;13.610;2023-05-25T00:37:22;14.50;99.90
40287;DHT22;25998;46.604;13.610;2023-05-25T00:40:34;14.60;99.90
40287;DHT22;25998;46.604;13.610;2023-05-25T00:43:45;14.80;99.90
40287;DHT22;25998;46.604;13.610;2023-05-25T00:46:56;14.80;99.90
40287;DHT22;25998;46.604;13.610;2023-05-25T00:50:09;14.80;99.90
40287;DHT22;25998;46.604;13.610;2023-05-25T00:53:20;14.80;99.90
40287;DHT22;25998;46.604;13.610;2023-05-25T00:56:34;14.80;99.90
40287;DHT22;25998;46.604;13.610;2023-05-25T00:59:47;14.90;99.90
40287;DHT22;25998;46.604;13.610;2023-05-25T01:02:58;14.80;99.90
40287;DHT22;25998;46.604;13.610;2023-05-25T01:06:13;14.90;99.90
40287;DHT22;25998;46.604;13.610;2023-05-25T01:09:26;15.10;99.90
40287;DHT22;25998;46.604;13.610;2023-05-25T01:12:41;15.00;99.90
40287;DHT22;25998;46.604;13.610;2023-05-25T01:15:54;14.80;99.90
40287;DHT22;25998;46.604;13.610;2023-05-25T01:19:05;14.80;99.90
40287;DHT22;25998;46.604;13.610;2023-05-25T01:22:27;14.80;99.90
40287;DHT22;25998;46.604;13.610;2023-05-25T01:25:46;14.70;99.90
40287;DHT22;25998;46.604;13.610;2023-05-25T01:28:58;14.80;99.90
40287;DHT22;25998;46.604;13.610;2023-05-25T01:32:13;14.80;99.90
40287;DHT22;25998;46.604;13.610;2023-05-25T01:35:24;14.70;99.90
40287;DHT22;25998;46.604;13.610;2023-05-25T01:38:36;14.80;99.90
40287;DHT22;25998;46.604;13.610;2023-05-25T01:41:47;14.90;99.90
40287;DHT22;25998;46.604;13.610;2023-05-25T01:44:59;14.90;99.90
40287;DHT22;25998;46.604;13.610;2023-05-25T01:48:29;14.80;99.90
40287;DHT22;25998;46.604;13.610;2023-05-25T01:55:09;14.70;99.90
40287;DHT22;25998;46.604;13.610;2023-05-25T01:58:21;14.60;99.90
40287;DHT22;25998;46.604;13.610;2023-05-25T02:01:35;14.60;99.90
40287;DHT22;25998;46.604;13.610;2023-05-25T02:04:47;14.60;99.90
40287;DHT22;25998;46.604;13.610;2023-05-25T02:07:58;14.50;99.90
40287;DHT22;25998;46.604;13.610;2023-05-25T02:11:11;14.50;99.90
40287;DHT22;25998;46.604;13.610;2023-05-25T02:14:22;14.60;99.90
40287;DHT22;25998;46.604;13.610;2023-05-25T02:17:33;14.70;99.90
40287;DHT22;25998;46.604;13.610;2023-05-25T02:20:46;14.70;99.90
40287;DHT22;25998;46.604;13.610;2023-05-25T02:23:57;14.60;99.90
40287;DHT22;25998;46.604;13.610;2023-05-25T02:27:08;14.60;99.90
40287;DHT22;25998;46.604;13.610;2023-05-25T02:30:22;14.60;99.90
40287;DHT22;25998;46.604;13.610;2023-05-25T02:33:33;14.60;99.90
40287;DHT22;25998;46.604;13.610;2023-05-25T02:36:43;14.60;99.90
40287;DHT22;25998;46.604;13.610;2023-05-25T02:39:54;14.70;99.90
40287;DHT22;25998;46.604;13.610;2023-05-25T02:43:05;14.70;99.90
40287;DHT22;25998;46.604;13.610;2023-05-25T02:46:16;14.60;99.90
40287;DHT22;25998;46.604;13.610;2023-05-25T02:49:27;14.60;99.90
40287;DHT22;25998;46.604;13.610;2023-05-25T02:52:39;14.60;99.90
40287;DHT22;25998;46.604;13.610;2023-05-25T02:55:50;14.50;99.90
40287;DHT22;25998;46.604;13.610;2023-05-25T02:59:00;14.50;99.90
40287;DHT22;25998;46.604;13.610;2023-05-25T03:02:11;14.60;99.90
40287;DHT22;25998;46.604;13.610;2023-05-25T03:05:22;14.50;99.90
40287;DHT22;25998;46.604;13.610;2023-05-25T03:08:33;14.50;99.90
40287;DHT22;25998;46.604;13.610;2023-05-25T03:11:44;14.60;99.90
40287;DHT22;25998;46.604;13.610;2023-05-25T03:14:54;14.60;99.90
40287;DHT22;25998;46.604;13.610;2023-05-25T03:18:06;14.70;99.90
40287;DHT22;25998;46.604;13.610;2023-05-25T03:21:17;14.70;99.90
40287;DHT22;25998;46.604;13.610;2023-05-25T03:24:28;14.70;99.90
40287;DHT22;25998;46.604;13.610;2023-05-25T03:27:39;14.60;99.90
40287;DHT22;25998;46.604;13.610;2023-05-25T03:30:49;14.50;99.90
40287;DHT22;25998;46.604;13.610;2023-05-25T03:34:02;14.50;99.90
40287;DHT22;25998;46.604;13.610;2023-05-25T03:37:13;14.50;99.90
40287;DHT22;25998;46.604;13.610;2023-05-25T03:40:24;14.50;99.90
40287;DHT22;25998;46.604;13.610;2023-05-25T03:43:35;14.50;99.90
40287;DHT22;25998;46.604;13.610;2023-05-25T03:46:46;14.60;99.90
40287;DHT22;25998;46.604;13.610;2023-05-25T03:49:56;14.50;99.90
40287;DHT22;25998;46.604;13.610;2023-05-25T03:53:07;14.40;99.90
40287;DHT22;25998;46.604;13.610;2023-05-25T03:56:19;14.50;99.90
40287;DHT22;25998;46.604;13.610;2023-05-25T03:59:30;14.40;99.90
40287;DHT22;25998;46.604;13.610;2023-05-25T04:02:41;14.30;99.90
40287;DHT22;25998;46.604;13.610;2023-05-25T04:05:52;14.30;99.90
40287;DHT22;25998;46.604;13.610;2023-05-25T04:09:03;14.20;99.90
40287;DHT22;25998;46.604;13.610;2023-05-25T04:12:14;14.40;99.90
40287;DHT22;25998;46.604;13.610;2023-05-25T04:15:25;14.40;99.90
40287;DHT22;25998;46.604;13.610;2023-05-25T04:18:36;14.40;99.90
40287;DHT22;25998;46.604;13.610;2023-05-25T04:21:47;14.40;99.90
40287;DHT22;25998;46.604;13.610;2023-05-25T04:24:57;14.40;99.90
40287;DHT22;25998;46.604;13.610;2023-05-25T04:28:08;14.50;99.90
40287;DHT22;25998;46.604;13.610;2023-05-25T04:31:20;14.60;99.90
40287;DHT22;25998;46.604;13.610;2023-05-25T04:34:31;14.40;99.90
40287;DHT22;25998;46.604;13.610;2023-05-25T04:37:43;14.40;99.90
40287;DHT22;25998;46.604;13.610;2023-05-25T04:40:56;14.40;99.90
40287;DHT22;25998;46.604;13.610;2023-05-25T04:44:07;14.50;99.90
40287;DHT22;25998;46.604;13.610;2023-05-25T04:47:19;14.60;99.90
40287;DHT22;25998;46.604;13.610;2023-05-25T04:50:29;14.50;99.90
40287;DHT22;25998;46.604;13.610;2023-05-25T04:53:40;14.50;99.90
40287;DHT22;25998;46.604;13.610;2023-05-25T04:56:51;14.40;99.90
40287;DHT22;25998;46.604;13.610;2023-05-25T05:00:03;14.40;99.90
40287;DHT22;25998;46.604;13.610;2023-05-25T05:03:15;14.30;99.90
40287;DHT22;25998;46.604;13.610;2023-05-25T05:06:26;14.30;99.90
40287;DHT22;25998;46.604;13.610;2023-05-25T05:09:37;14.30;99.90
40287;DHT22;25998;46.604;13.610;2023-05-25T05:12:48;14.40;99.90
40287;DHT22;25998;46.604;13.610;2023-05-25T05:15:59;14.30;99.90
40287;DHT22;25998;46.604;13.610;2023-05-25T05:19:09;14.40;99.90
40287;DHT22;25998;46.604;13.610;2023-05-25T05:22:20;14.50;99.90
40287;DHT22;25998;46.604;13.610;2023-05-25T05:25:31;14.50;99.90
40287;DHT22;25998;46.604;13.610;2023-05-25T05:28:42;14.60;99.90
40287;DHT22;25998;46.604;13.610;2023-05-25T05:31:54;14.60;99.90
40287;DHT22;25998;46.604;13.610;2023-05-25T05:35:05;14.60;99.90
40287;DHT22;25998;46.604;13.610;2023-05-25T05:38:16;14.40;99.90
40287;DHT22;25998;46.604;13.610;2023-05-25T05:41:27;14.40;99.90
40287;DHT22;25998;46.604;13.610;2023-05-25T05:44:37;14.30;99.90
40287;DHT22;25998;46.604;13.610;2023-05-25T05:47:48;14.40;99.90
40287;DHT22;25998;46.604;13.610;2023-05-25T05:50:59;14.40;99.90
40287;DHT22;25998;46.604;13.610;2023-05-25T05:54:10;14.50;99.90
40287;DHT22;25998;46.604;13.610;2023-05-25T05:57:21;14.50;99.90
40287;DHT22;25998;46.604;13.610;2023-05-25T06:00:32;14.60;99.90
40287;DHT22;25998;46.604;13.610;2023-05-25T06:03:44;14.70;99.90
40287;DHT22;25998;46.604;13.610;2023-05-25T06:06:55;14.80;99.90
40287;DHT22;25998;46.604;13.610;2023-05-25T06:10:06;14.90;99.90
40287;DHT22;25998;46.604;13.610;2023-05-25T06:13:17;14.80;99.90
40287;DHT22;25998;46.604;13.610;2023-05-25T06:16:28;14.80;99.90
40287;DHT22;25998;46.604;13.610;2023-05-25T06:19:41;14.80;99.90
40287;DHT22;25998;46.604;13.610;2023-05-25T06:22:51;14.90;99.90
40287;DHT22;25998;46.604;13.610;2023-05-25T06:26:06;14.90;99.90
40287;DHT22;25998;46.604;13.610;2023-05-25T06:29:16;15.00;99.90
40287;DHT22;25998;46.604;13.610;2023-05-25T06:32:27;15.00;99.90
40287;DHT22;25998;46.604;13.610;2023-05-25T06:35:38;14.90;99.90
40287;DHT22;25998;46.604;13.610;2023-05-25T06:38:49;14.90;99.90
40287;DHT22;25998;46.604;13.610;2023-05-25T06:42:00;14.90;99.90
40287;DHT22;25998;46.604;13.610;2023-05-25T06:45:11;14.90;99.90
40287;DHT22;25998;46.604;13.610;2023-05-25T06:48:24;14.90;99.90
40287;DHT22;25998;46.604;13.610;2023-05-25T06:51:35;14.90;99.90
40287;DHT22;25998;46.604;13.610;2023-05-25T06:54:47;14.90;99.90
40287;DHT22;25998;46.604;13.610;2023-05-25T06:57:57;14.90;99.90
40287;DHT22;25998;46.604;13.610;2023-05-25T07:01:08;14.90;99.90
40287;DHT22;25998;46.604;13.610;2023-05-25T07:04:19;15.00;99.90
40287;DHT22;25998;46.604;13.610;2023-05-25T07:07:32;15.10;99.90
40287;DHT22;25998;46.604;13.610;2023-05-25T07:10:43;15.20;99.90
40287;DHT22;25998;46.604;13.610;2023-05-25T07:13:54;15.30;99.90
40287;DHT22;25998;46.604;13.610;2023-05-25T07:17:05;15.30;99.90
40287;DHT22;25998;46.604;13.610;2023-05-25T07:20:16;15.50;99.90
40287;DHT22;25998;46.604;13.610;2023-05-25T07:23:27;15.70;99.90
40287;DHT22;25998;46.604;13.610;2023-05-25T07:26:38;16.10;99.90
40287;DHT22;25998;46.604;13.610;2023-05-25T07:29:50;16.20;99.90
40287;DHT22;25998;46.604;13.610;2023-05-25T07:33:01;16.30;99.90
40287;DHT22;25998;46.604;13.610;2023-05-25T07:36:12;16.10;99.90
40287;DHT22;25998;46.604;13.610;2023-05-25T07:39:22;16.10;99.90
40287;DHT22;25998;46.604;13.610;2023-05-25T07:42:33;16.00;99.90
40287;DHT22;25998;46.604;13.610;2023-05-25T07:45:44;16.00;99.90
40287;DHT22;25998;46.604;13.610;2023-05-25T07:48:55;16.00;99.90
40287;DHT22;25998;46.604;13.610;2023-05-25T07:52:07;16.00;99.90
40287;DHT22;25998;46.604;13.610;2023-05-25T07:55:18;16.00;99.90
40287;DHT22;25998;46.604;13.610;2023-05-25T07:58:29;16.10;99.90
40287;DHT22;25998;46.604;13.610;2023-05-25T08:01:40;16.10;99.90
40287;DHT22;25998;46.604;13.610;2023-05-25T08:04:51;16.20;99.90
40287;DHT22;25998;46.604;13.610;2023-05-25T08:08:02;16.80;99.90
40287;DHT22;25998;46.604;13.610;2023-05-25T08:11:14;17.20;99.90
40287;DHT22;25998;46.604;13.610;2023-05-25T08:14:26;17.70;99.90
40287;DHT22;25998;46.604;13.610;2023-05-25T08:17:37;18.40;99.90
40287;DHT22;25998;46.604;13.610;2023-05-25T08:20:48;19.20;99.90
40287;DHT22;25998;46.604;13.610;2023-05-25T08:23:59;19.80;99.90
40287;DHT22;25998;46.604;13.610;2023-05-25T08:27:13;19.30;99.90
40287;DHT22;25998;46.604;13.610;2023-05-25T08:30:24;19.10;99.90
40287;DHT22;25998;46.604;13.610;2023-05-25T08:33:36;19.00;99.90
40287;DHT22;25998;46.604;13.610;2023-05-25T08:36:47;18.90;99.90
40287;DHT22;25998;46.604;13.610;2023-05-25T08:39:58;18.90;99.90
40287;DHT22;25998;46.604;13.610;2023-05-25T08:43:11;19.00;99.90
40287;DHT22;25998;46.604;13.610;2023-05-25T08:46:29;18.80;99.90
40287;DHT22;25998;46.604;13.610;2023-05-25T08:49:43;19.20;99.90
40287;DHT22;25998;46.604;13.610;2023-05-25T08:52:55;19.40;99.90
40287;DHT22;25998;46.604;13.610;2023-05-25T08:56:16;19.80;99.90
40287;DHT22;25998;46.604;13.610;2023-05-25T09:00:02;20.40;99.90
40287;DHT22;25998;46.604;13.610;2023-05-25T09:03:17;20.90;99.90
40287;DHT22;25998;46.604;13.610;2023-05-25T09:06:28;20.40;99.90
40287;DHT22;25998;46.604;13.610;2023-05-25T09:09:40;20.10;99.90
40287;DHT22;25998;46.604;13.610;2023-05-25T09:12:51;20.70;99.90
40287;DHT22;25998;46.604;13.610;2023-05-25T09:16:03;20.60;99.90
40287;DHT22;25998;46.604;13.610;2023-05-25T09:19:14;20.80;99.90
40287;DHT22;25998;46.604;13.610;2023-05-25T09:22:25;21.50;99.90
40287;DHT22;25998;46.604;13.610;2023-05-25T09:25:37;21.90;99.90
40287;DHT22;25998;46.604;13.610;2023-05-25T09:28:49;22.40;99.90
40287;DHT22;25998;46.604;13.610;2023-05-25T09:32:00;22.70;99.90
40287;DHT22;25998;46.604;13.610;2023-05-25T09:35:14;22.40;99.90
40287;DHT22;25998;46.604;13.610;2023-05-25T09:38:25;22.00;99.90
40287;DHT22;25998;46.604;13.610;2023-05-25T09:41:42;22.10;99.90
40287;DHT22;25998;46.604;13.610;2023-05-25T09:44:53;22.40;99.90
40287;DHT22;25998;46.604;13.610;2023-05-25T09:48:05;22.50;99.90
40287;DHT22;25998;46.604;13.610;2023-05-25T09:51:17;22.50;99.90
40287;DHT22;25998;46.604;13.610;2023-05-25T09:54:28;22.80;99.90
40287;DHT22;25998;46.604;13.610;2023-05-25T09:57:39;23.10;99.80
40287;DHT22;25998;46.604;13.610;2023-05-25T10:00:52;22.80;99.90
40287;DHT22;25998;46.604;13.610;2023-05-25T10:04:04;22.70;99.40
40287;DHT22;25998;46.604;13.610;2023-05-25T10:07:15;22.60;98.60
40287;DHT22;25998;46.604;13.610;2023-05-25T10:10:27;22.60;99.90
40287;DHT22;25998;46.604;13.610;2023-05-25T10:13:39;22.80;98.90
40287;DHT22;25998;46.604;13.610;2023-05-25T10:16:56;23.30;98.00
40287;DHT22;25998;46.604;13.610;2023-05-25T10:20:08;23.50;98.10
40287;DHT22;25998;46.604;13.610;2023-05-25T10:23:19;23.30;98.10
40287;DHT22;25998;46.604;13.610;2023-05-25T10:26:35;23.40;98.80
40287;DHT22;25998;46.604;13.610;2023-05-25T10:29:47;23.30;97.10
40287;DHT22;25998;46.604;13.610;2023-05-25T10:33:01;23.50;99.00
40287;DHT22;25998;46.604;13.610;2023-05-25T10:36:13;23.50;97.60
40287;DHT22;25998;46.604;13.610;2023-05-25T10:39:24;23.50;97.90
40287;DHT22;25998;46.604;13.610;2023-05-25T10:42:37;23.30;96.60
40287;DHT22;25998;46.604;13.610;2023-05-25T10:45:48;23.60;97.70
40287;DHT22;25998;46.604;13.610;2023-05-25T10:48:59;23.70;97.70
40287;DHT22;25998;46.604;13.610;2023-05-25T10:52:17;23.70;96.50
40287;DHT22;25998;46.604;13.610;2023-05-25T10:55:29;23.70;96.30
40287;DHT22;25998;46.604;13.610;2023-05-25T10:58:51;23.90;98.00
40287;DHT22;25998;46.604;13.610;2023-05-25T11:02:06;24.00;95.90
40287;DHT22;25998;46.604;13.610;2023-05-25T11:08:59;24.10;94.70
40287;DHT22;25998;46.604;13.610;2023-05-25T11:12:20;23.80;94.70
40287;DHT22;25998;46.604;13.610;2023-05-25T11:15:32;24.00;93.80
40287;DHT22;25998;46.604;13.610;2023-05-25T11:18:44;24.30;95.90
40287;DHT22;25998;46.604;13.610;2023-05-25T11:21:56;24.40;96.10
40287;DHT22;25998;46.604;13.610;2023-05-25T11:25:36;24.30;95.90
40287;DHT22;25998;46.604;13.610;2023-05-25T11:28:48;24.10;95.70
40287;DHT22;25998;46.604;13.610;2023-05-25T11:32:00;24.10;95.80
40287;DHT22;25998;46.604;13.610;2023-05-25T11:35:14;24.10;96.60
40287;DHT22;25998;46.604;13.610;2023-05-25T11:38:24;24.10;95.70
40287;DHT22;25998;46.604;13.610;2023-05-25T11:41:36;24.30;93.90
40287;DHT22;25998;46.604;13.610;2023-05-25T11:44:48;24.20;95.10
40287;DHT22;25998;46.604;13.610;2023-05-25T11:47:59;24.10;93.70
40287;DHT22;25998;46.604;13.610;2023-05-25T11:51:10;24.30;93.50
40287;DHT22;25998;46.604;13.610;2023-05-25T11:54:29;24.80;96.50
40287;DHT22;25998;46.604;13.610;2023-05-25T11:57:40;24.70;92.90
40287;DHT22;25998;46.604;13.610;2023-05-25T12:00:51;24.60;95.00
40287;DHT22;25998;46.604;13.610;2023-05-25T12:04:07;24.80;94.30
40287;DHT22;25998;46.604;13.610;2023-05-25T12:07:19;24.70;94.40
40287;DHT22;25998;46.604;13.610;2023-05-25T12:10:30;24.50;94.20
40287;DHT22;25998;46.604;13.610;2023-05-25T12:13:40;24.70;94.80
40287;DHT22;25998;46.604;13.610;2023-05-25T12:16:51;24.90;94.20
40287;DHT22;25998;46.604;13.610;2023-05-25T12:20:03;24.80;93.50
40287;DHT22;25998;46.604;13.610;2023-05-25T12:23:16;24.60;93.50
40287;DHT22;25998;46.604;13.610;2023-05-25T12:26:28;24.70;93.00
40287;DHT22;25998;46.604;13.610;2023-05-25T12:29:48;25.00;92.70
40287;DHT22;25998;46.604;13.610;2023-05-25T12:33:00;25.30;93.00
40287;DHT22;25998;46.604;13.610;2023-05-25T12:36:11;25.30;92.30
40287;DHT22;25998;46.604;13.610;2023-05-25T12:42:39;25.00;93.10
40287;DHT22;25998;46.604;13.610;2023-05-25T12:45:50;25.20;94.20
40287;DHT22;25998;46.604;13.610;2023-05-25T12:49:01;25.30;91.90
40287;DHT22;25998;46.604;13.610;2023-05-25T12:52:31;25.20;92.30
40287;DHT22;25998;46.604;13.610;2023-05-25T12:55:43;25.10;91.40
40287;DHT22;25998;46.604;13.610;2023-05-25T12:58:53;25.20;92.10
40287;DHT22;25998;46.604;13.610;2023-05-25T13:02:05;25.20;91.90
40287;DHT22;25998;46.604;13.610;2023-05-25T13:05:24;25.50;91.80
40287;DHT22;25998;46.604;13.610;2023-05-25T13:08:35;25.90;92.50
40287;DHT22;25998;46.604;13.610;2023-05-25T13:11:47;25.60;91.20
40287;DHT22;25998;46.604;13.610;2023-05-25T13:14:58;25.50;90.50
40287;DHT22;25998;46.604;13.610;2023-05-25T13:18:09;25.60;91.90
40287;DHT22;25998;46.604;13.610;2023-05-25T13:21:20;25.70;90.40
40287;DHT22;25998;46.604;13.610;2023-05-25T13:24:31;25.70;90.60
40287;DHT22;25998;46.604;13.610;2023-05-25T13:27:46;25.70;88.90
40287;DHT22;25998;46.604;13.610;2023-05-25T13:30:57;26.00;89.70
40287;DHT22;25998;46.604;13.610;2023-05-25T13:34:08;26.00;90.30
40287;DHT22;25998;46.604;13.610;2023-05-25T13:37:19;25.80;90.80
40287;DHT22;25998;46.604;13.610;2023-05-25T13:40:30;25.80;89.40
40287;DHT22;25998;46.604;13.610;2023-05-25T13:43:41;25.60;91.00
40287;DHT22;25998;46.604;13.610;2023-05-25T13:46:51;25.70;89.30
40287;DHT22;25998;46.604;13.610;2023-05-25T13:50:02;25.70;88.20
40287;DHT22;25998;46.604;13.610;2023-05-25T13:53:14;25.90;87.10
40287;DHT22;25998;46.604;13.610;2023-05-25T13:56:24;25.90;89.60
40287;DHT22;25998;46.604;13.610;2023-05-25T13:59:36;25.90;87.60
40287;DHT22;25998;46.604;13.610;2023-05-25T14:02:47;25.60;88.30
40287;DHT22;25998;46.604;13.610;2023-05-25T14:05:58;25.50;88.20
40287;DHT22;25998;46.604;13.610;2023-05-25T14:09:09;25.30;90.10
40287;DHT22;25998;46.604;13.610;2023-05-25T14:12:20;25.40;90.50
40287;DHT22;25998;46.604;13.610;2023-05-25T14:15:31;25.80;89.60
40287;DHT22;25998;46.604;13.610;2023-05-25T14:18:42;25.90;87.90
40287;DHT22;25998;46.604;13.610;2023-05-25T14:21:53;25.90;87.70
40287;DHT22;25998;46.604;13.610;2023-05-25T14:25:04;26.00;87.00
40287;DHT22;25998;46.604;13.610;2023-05-25T14:28:15;25.80;86.00
40287;DHT22;25998;46.604;13.610;2023-05-25T14:31:26;25.60;87.30
40287;DHT22;25998;46.604;13.610;2023-05-25T14:34:37;25.60;87.10
40287;DHT22;25998;46.604;13.610;2023-05-25T14:37:48;25.70;86.80
40287;DHT22;25998;46.604;13.610;2023-05-25T14:40:58;25.70;86.90
40287;DHT22;25998;46.604;13.610;2023-05-25T14:44:09;25.70;87.80
40287;DHT22;25998;46.604;13.610;2023-05-25T14:47:20;25.40;86.20
40287;DHT22;25998;46.604;13.610;2023-05-25T14:50:31;25.50;90.40
40287;DHT22;25998;46.604;13.610;2023-05-25T14:53:42;25.70;90.90
40287;DHT22;25998;46.604;13.610;2023-05-25T14:56:53;25.90;88.80
40287;DHT22;25998;46.604;13.610;2023-05-25T15:00:04;25.70;89.00
40287;DHT22;25998;46.604;13.610;2023-05-25T15:03:15;25.90;90.20
40287;DHT22;25998;46.604;13.610;2023-05-25T15:06:25;26.00;90.70
40287;DHT22;25998;46.604;13.610;2023-05-25T15:09:36;25.90;91.40
40287;DHT22;25998;46.604;13.610;2023-05-25T15:12:47;26.00;90.70
40287;DHT22;25998;46.604;13.610;2023-05-25T15:15:58;26.20;90.50
40287;DHT22;25998;46.604;13.610;2023-05-25T15:19:09;26.00;90.00
40287;DHT22;25998;46.604;13.610;2023-05-25T15:22:20;25.80;90.00
40287;DHT22;25998;46.604;13.610;2023-05-25T15:25:31;25.70;90.80
40287;DHT22;25998;46.604;13.610;2023-05-25T15:28:43;25.70;90.70
40287;DHT22;25998;46.604;13.610;2023-05-25T15:31:53;25.60;90.30
40287;DHT22;25998;46.604;13.610;2023-05-25T15:35:05;25.60;90.20
40287;DHT22;25998;46.604;13.610;2023-05-25T15:38:16;25.50;89.70
40287;DHT22;25998;46.604;13.610;2023-05-25T15:41:26;25.40;88.70
40287;DHT22;25998;46.604;13.610;2023-05-25T15:44:37;25.60;89.90
40287;DHT22;25998;46.604;13.610;2023-05-25T15:47:48;25.60;89.30
40287;DHT22;25998;46.604;13.610;2023-05-25T15:51:00;25.60;90.30
40287;DHT22;25998;46.604;13.610;2023-05-25T15:54:11;25.60;91.50
40287;DHT22;25998;46.604;13.610;2023-05-25T15:57:22;25.50;91.30
40287;DHT22;25998;46.604;13.610;2023-05-25T16:00:32;25.50;90.80
40287;DHT22;25998;46.604;13.610;2023-05-25T16:03:43;25.40;87.20
40287;DHT22;25998;46.604;13.610;2023-05-25T16:06:54;25.20;88.40
40287;DHT22;25998;46.604;13.610;2023-05-25T16:10:06;25.10;88.90
40287;DHT22;25998;46.604;13.610;2023-05-25T16:13:17;25.10;88.70
40287;DHT22;25998;46.604;13.610;2023-05-25T16:16:28;24.90;92.20
40287;DHT22;25998;46.604;13.610;2023-05-25T16:19:39;24.80;90.90
40287;DHT22;25998;46.604;13.610;2023-05-25T16:22:49;24.50;92.60
40287;DHT22;25998;46.604;13.610;2023-05-25T16:26:00;24.30;93.50
40287;DHT22;25998;46.604;13.610;2023-05-25T16:29:11;24.20;92.20
40287;DHT22;25998;46.604;13.610;2023-05-25T16:32:22;24.10;91.60
40287;DHT22;25998;46.604;13.610;2023-05-25T16:35:33;24.30;90.20
40287;DHT22;25998;46.604;13.610;2023-05-25T16:38:44;24.30;91.70
40287;DHT22;25998;46.604;13.610;2023-05-25T16:41:55;24.10;92.10
40287;DHT22;25998;46.604;13.610;2023-05-25T16:45:07;23.90;90.50
40287;DHT22;25998;46.604;13.610;2023-05-25T16:48:18;23.50;94.70
40287;DHT22;25998;46.604;13.610;2023-05-25T16:51:29;23.20;94.50
40287;DHT22;25998;46.604;13.610;2023-05-25T16:54:40;23.20;93.90
40287;DHT22;25998;46.604;13.610;2023-05-25T16:57:51;23.10;95.00
40287;DHT22;25998;46.604;13.610;2023-05-25T17:01:01;22.70;95.20
40287;DHT22;25998;46.604;13.610;2023-05-25T17:04:12;22.60;95.60
40287;DHT22;25998;46.604;13.610;2023-05-25T17:07:23;22.40;95.40
40287;DHT22;25998;46.604;13.610;2023-05-25T17:10:34;22.50;95.20
40287;DHT22;25998;46.604;13.610;2023-05-25T17:13:45;22.50;95.70
40287;DHT22;25998;46.604;13.610;2023-05-25T17:16:56;22.40;95.40
40287;DHT22;25998;46.604;13.610;2023-05-25T17:20:06;22.30;95.90
40287;DHT22;25998;46.604;13.610;2023-05-25T17:23:17;22.10;96.60
40287;DHT22;25998;46.604;13.610;2023-05-25T17:26:28;21.90;97.10
40287;DHT22;25998;46.604;13.610;2023-05-25T17:29:39;22.00;96.80
40287;DHT22;25998;46.604;13.610;2023-05-25T17:32:51;22.00;97.20
40287;DHT22;25998;46.604;13.610;2023-05-25T17:36:03;21.90;97.30
40287;DHT22;25998;46.604;13.610;2023-05-25T17:39:14;21.70;97.80
40287;DHT22;25998;46.604;13.610;2023-05-25T17:42:25;21.60;97.50
40287;DHT22;25998;46.604;13.610;2023-05-25T17:45:36;21.50;97.30
40287;DHT22;25998;46.604;13.610;2023-05-25T17:48:47;21.20;98.00
40287;DHT22;25998;46.604;13.610;2023-05-25T17:51:58;21.20;97.60
40287;DHT22;25998;46.604;13.610;2023-05-25T17:55:09;21.20;97.30
40287;DHT22;25998;46.604;13.610;2023-05-25T17:58:19;21.20;97.60
40287;DHT22;25998;46.604;13.610;2023-05-25T18:01:31;21.00;97.30
40287;DHT22;25998;46.604;13.610;2023-05-25T18:04:44;20.90;97.70
40287;DHT22;25998;46.604;13.610;2023-05-25T18:07:55;20.80;97.90
40287;DHT22;25998;46.604;13.610;2023-05-25T18:11:06;20.70;98.30
40287;DHT22;25998;46.604;13.610;2023-05-25T18:14:17;20.70;98.50
40287;DHT22;25998;46.604;13.610;2023-05-25T18:17:28;20.60;98.50
40287;DHT22;25998;46.604;13.610;2023-05-25T18:20:38;20.60;98.20
40287;DHT22;25998;46.604;13.610;2023-05-25T18:23:49;20.50;98.20
40287;DHT22;25998;46.604;13.610;2023-05-25T18:27:00;20.30;98.60
40287;DHT22;25998;46.604;13.610;2023-05-25T18:30:13;20.20;99.20
40287;DHT22;25998;46.604;13.610;2023-05-25T18:33:24;20.10;99.40
40287;DHT22;25998;46.604;13.610;2023-05-25T18:36:35;20.00;99.50
40287;DHT22;25998;46.604;13.610;2023-05-25T18:39:46;20.00;99.50
40287;DHT22;25998;46.604;13.610;2023-05-25T18:42:57;19.90;99.50
40287;DHT22;25998;46.604;13.610;2023-05-25T18:46:08;19.80;99.40
40287;DHT22;25998;46.604;13.610;2023-05-25T18:49:19;19.70;99.70
40287;DHT22;25998;46.604;13.610;2023-05-25T18:52:29;19.70;99.80
40287;DHT22;25998;46.604;13.610;2023-05-25T18:55:40;19.70;99.90
40287;DHT22;25998;46.604;13.610;2023-05-25T18:58:51;19.70;99.90
40287;DHT22;25998;46.604;13.610;2023-05-25T19:02:04;19.70;99.80
40287;DHT22;25998;46.604;13.610;2023-05-25T19:05:15;19.70;99.80
40287;DHT22;25998;46.604;13.610;2023-05-25T19:08:26;19.50;99.90
40287;DHT22;25998;46.604;13.610;2023-05-25T19:11:36;19.30;99.90
40287;DHT22;25998;46.604;13.610;2023-05-25T19:14:47;19.30;99.90
40287;DHT22;25998;46.604;13.610;2023-05-25T19:17:58;19.30;99.90
40287;DHT22;25998;46.604;13.610;2023-05-25T19:21:09;19.20;99.90
40287;DHT22;25998;46.604;13.610;2023-05-25T19:24:20;19.00;99.90
40287;DHT22;25998;46.604;13.610;2023-05-25T19:27:31;18.80;99.90
40287;DHT22;25998;46.604;13.610;2023-05-25T19:30:42;18.80;99.90
40287;DHT22;25998;46.604;13.610;2023-05-25T19:33:53;18.90;99.90
40287;DHT22;25998;46.604;13.610;2023-05-25T19:37:04;18.90;99.90
40287;DHT22;25998;46.604;13.610;2023-05-25T19:40:14;19.00;99.90
40287;DHT22;25998;46.604;13.610;2023-05-25T19:43:25;19.00;99.90
40287;DHT22;25998;46.604;13.610;2023-05-25T19:46:36;18.90;99.90
40287;DHT22;25998;46.604;13.610;2023-05-25T19:49:49;18.80;99.90
40287;DHT22;25998;46.604;13.610;2023-05-25T19:53:00;18.80;99.90
40287;DHT22;25998;46.604;13.610;2023-05-25T19:56:11;18.80;99.90
40287;DHT22;25998;46.604;13.610;2023-05-25T19:59:22;18.80;99.90
40287;DHT22;25998;46.604;13.610;2023-05-25T20:02:37;18.90;99.90